This is the latest recevied weather packets stored in our database for station/object IZ1UKX-13. If no packets are shown the sender has not sent any weather packets the latest 10 day(s).
| Time | Temp. | Humidity | Pressure | Rain* | Wind** | Luminosity | Snow |
|---|---|---|---|---|---|---|---|
| 1787746750 | 27.22° C | 65% | 1021.4 hPa | 0 mm | - | 0 W/m² | - |
| 1787746450 | 27.78° C | 65% | 1021.4 hPa | 0 mm | - | 0 W/m² | - |
| 1787746149 | 28.33° C | 63% | 1021.4 hPa | 0 mm | - | 0 W/m² | - |
| 1787745855 | 28.89° C | 62% | 1021 hPa | 0 mm | - | 0 W/m² | - |
| 1787745550 | 29.44° C | 61% | 1021 hPa | 0 mm | - | 0 W/m² | - |
| 1787745250 | 29.44° C | 60% | 1021 hPa | 0 mm | - | 0 W/m² | - |
| 1787744950 | 30.56° C | 56% | 1021 hPa | 0 mm | - | 0 W/m² | - |
| 1787744649 | 30.56° C | 58% | 1021 hPa | 0 mm | - | 0 W/m² | - |
| 1787744349 | 30.56° C | 58% | 1021 hPa | 0 mm | - | 0 W/m² | - |
| 1787744050 | 30.56° C | 57% | 1021 hPa | 0 mm | - | 0 W/m² | - |
| 1787743750 | 30.56° C | 57% | 1021 hPa | 0 mm | - | 0 W/m² | - |
| 1787743449 | 30° C | 60% | 1021 hPa | 0 mm | - | 0 W/m² | - |
| 1787743149 | 29.44° C | 61% | 1021 hPa | 0 mm | - | 0 W/m² | - |
| 1787742850 | 28.33° C | 64% | 1021.4 hPa | 0 mm | - | 0 W/m² | - |
| 1787742550 | 27.78° C | 66% | 1021.4 hPa | 0 mm | - | 0 W/m² | - |
| 1787742255 | 27.78° C | 66% | 1021.4 hPa | 0 mm | - | 0 W/m² | - |
| 1787741949 | 27.78° C | 66% | 1021.4 hPa | 0 mm | - | 0 W/m² | - |
| 1787741650 | 27.22° C | 67% | 1021.4 hPa | 0 mm | - | 0 W/m² | - |
| 1787741350 | 27.78° C | 65% | 1021.4 hPa | 0 mm | - | 0 W/m² | - |
| 1787741049 | 28.33° C | 64% | 1021.4 hPa | 0 mm | - | 0 W/m² | - |
| 1787740750 | 28.33° C | 64% | 1021.4 hPa | 0 mm | - | 0 W/m² | - |
| 1787740450 | 28.33° C | 64% | 1021.4 hPa | 0 mm | - | 0 W/m² | - |
| 1787740151 | 28.33° C | 63% | 1021.4 hPa | 0 mm | - | 0 W/m² | - |
| 1787739849 | 28.89° C | 63% | 1021 hPa | 0 mm | - | 0 W/m² | - |
| 1787739550 | 28.89° C | 63% | 1021 hPa | 0 mm | - | 0 W/m² | - |
* Rain latest hour (hover to see other rain measurements)
** Current wind speed in m/s (hover to see current wind gust speed)